createdAt,value
2023-02-05T00:01:36.346Z,1.70
2023-02-05T00:04:03.788Z,1.70
2023-02-05T00:06:31.195Z,1.60
2023-02-05T00:08:58.928Z,1.40
2023-02-05T00:11:26.655Z,1.30
2023-02-05T00:13:54.615Z,1.60
2023-02-05T00:16:23.803Z,1.70
2023-02-05T00:18:52.429Z,1.70
2023-02-05T00:21:21.895Z,1.53
2023-02-05T00:23:50.003Z,2.03
2023-02-05T00:26:18.003Z,2.13
2023-02-05T00:28:45.780Z,2.23
2023-02-05T00:31:16.300Z,1.87
2023-02-05T00:33:44.186Z,1.90
2023-02-05T00:36:13.098Z,1.63
2023-02-05T00:38:42.650Z,1.57
2023-02-05T00:41:11.539Z,2.23
2023-02-05T00:43:39.773Z,1.60
2023-02-05T00:46:07.671Z,1.73
2023-02-05T00:48:35.274Z,1.70
2023-02-05T00:51:03.226Z,2.70
2023-02-05T00:53:30.719Z,1.60
2023-02-05T00:55:58.271Z,1.23
2023-02-05T00:58:26.123Z,1.50
2023-02-05T01:00:55.910Z,1.33
2023-02-05T01:03:23.350Z,1.40
2023-02-05T01:05:50.656Z,1.97
2023-02-05T01:08:18.171Z,1.50
2023-02-05T01:10:47.653Z,1.87
2023-02-05T01:13:17.747Z,1.60
2023-02-05T01:15:46.393Z,1.70
2023-02-05T01:18:13.940Z,2.30
2023-02-05T01:20:42.436Z,2.20
2023-02-05T01:23:10.213Z,2.03
2023-02-05T01:25:38.116Z,1.60
2023-02-05T01:28:07.038Z,1.63
2023-02-05T01:30:35.777Z,1.03
2023-02-05T01:33:04.487Z,1.00
2023-02-05T01:35:32.162Z,1.37
2023-02-05T01:37:59.732Z,1.80
2023-02-05T01:40:27.282Z,1.90
2023-02-05T01:42:54.651Z,1.40
2023-02-05T01:45:22.135Z,1.63
2023-02-05T01:47:54.905Z,0.83
2023-02-05T01:50:30.131Z,1.07
2023-02-05T01:53:00.469Z,1.40
2023-02-05T01:55:29.277Z,1.57
2023-02-05T01:57:57.905Z,1.57
2023-02-05T02:00:25.545Z,1.30
2023-02-05T02:02:53.435Z,1.87
2023-02-05T02:05:21.033Z,1.57
2023-02-05T02:07:48.544Z,2.00
2023-02-05T02:10:18.320Z,1.70
2023-02-05T02:12:48.552Z,1.40
2023-02-05T02:15:19.666Z,1.67
2023-02-05T02:17:51.193Z,1.23
2023-02-05T02:20:26.837Z,1.60
2023-02-05T02:23:26.445Z,1.80
2023-02-05T02:25:54.071Z,1.77
2023-02-05T02:28:43.309Z,1.30
2023-02-05T02:31:31.070Z,1.60
2023-02-05T02:34:15.333Z,1.67
2023-02-05T02:36:58.590Z,1.43
2023-02-05T02:39:41.762Z,1.17
2023-02-05T02:42:16.305Z,1.50
2023-02-05T02:44:55.448Z,1.53
2023-02-05T02:47:26.480Z,1.80
2023-02-05T02:50:02.361Z,1.70
2023-02-05T02:52:34.748Z,1.60
2023-02-05T02:55:08.266Z,1.90
2023-02-05T02:57:39.029Z,2.13
2023-02-05T03:00:12.152Z,2.03
2023-02-05T03:02:41.324Z,1.90
2023-02-05T03:05:14.696Z,2.00
2023-02-05T03:07:53.025Z,1.97
2023-02-05T03:10:43.556Z,2.03
2023-02-05T03:13:12.080Z,1.67
2023-02-05T03:15:42.589Z,1.80
2023-02-05T03:18:10.989Z,2.00
2023-02-05T03:20:52.207Z,2.00
2023-02-05T03:23:20.133Z,2.00
2023-02-05T03:25:47.708Z,1.83
2023-02-05T03:28:15.701Z,2.00
2023-02-05T03:30:55.165Z,1.60
2023-02-05T03:33:41.190Z,2.17
2023-02-05T03:36:42.092Z,1.90
2023-02-05T03:39:37.833Z,2.20
2023-02-05T03:42:10.661Z,2.13
2023-02-05T03:44:56.751Z,2.10
2023-02-05T03:47:26.795Z,1.80
2023-02-05T03:50:07.901Z,2.17
2023-02-05T03:52:42.780Z,1.70
2023-02-05T03:55:20.416Z,2.00
2023-02-05T03:57:54.263Z,1.83
2023-02-05T04:00:22.398Z,1.60
2023-02-05T04:02:49.759Z,1.73
2023-02-05T04:05:17.297Z,1.63
2023-02-05T04:07:44.843Z,1.60
2023-02-05T04:10:12.398Z,1.60
2023-02-05T04:12:39.891Z,1.83
2023-02-05T04:15:09.300Z,1.40
2023-02-05T04:17:37.552Z,1.60
2023-02-05T04:20:06.392Z,2.60
2023-02-05T04:22:34.039Z,1.90
2023-02-05T04:25:01.384Z,1.77
2023-02-05T04:27:28.963Z,1.60
2023-02-05T04:29:56.360Z,1.63
2023-02-05T04:32:23.662Z,1.77
2023-02-05T04:34:51.273Z,1.70
2023-02-05T04:37:18.707Z,1.40
2023-02-05T04:39:47.435Z,1.37
2023-02-05T04:42:14.727Z,1.40
2023-02-05T04:44:42.053Z,1.30
2023-02-05T04:47:09.586Z,1.20
2023-02-05T04:49:37.192Z,1.30
2023-02-05T04:52:04.718Z,1.47
2023-02-05T04:54:32.330Z,1.10
2023-02-05T04:56:59.714Z,1.50
2023-02-05T04:59:27.135Z,1.17
2023-02-05T05:01:54.438Z,1.60
2023-02-05T05:04:21.919Z,1.53
2023-02-05T05:06:49.474Z,1.60
2023-02-05T05:09:16.972Z,1.97
2023-02-05T05:11:44.434Z,1.77
2023-02-05T05:14:11.726Z,1.77
2023-02-05T05:16:39.390Z,1.30
2023-02-05T05:19:06.781Z,1.60
2023-02-05T05:21:34.292Z,1.60
2023-02-05T05:24:01.898Z,1.57
2023-02-05T05:26:30.305Z,1.57
2023-02-05T05:28:58.274Z,1.73
2023-02-05T05:31:25.695Z,2.17
2023-02-05T05:33:54.283Z,1.50
2023-02-05T05:36:21.915Z,1.70
2023-02-05T05:38:49.396Z,1.90
2023-02-05T05:41:42.540Z,1.90
2023-02-05T05:44:10.137Z,1.67
2023-02-05T05:46:37.613Z,1.70
2023-02-05T05:49:05.312Z,2.10
2023-02-05T05:51:33.500Z,1.80
2023-02-05T05:54:00.975Z,1.70
2023-02-05T05:56:28.571Z,1.70
2023-02-05T05:58:56.060Z,1.60
2023-02-05T06:01:23.916Z,1.60
2023-02-05T06:03:51.308Z,1.70
2023-02-05T06:06:18.769Z,1.40
2023-02-05T06:08:46.234Z,1.53
2023-02-05T06:11:13.729Z,1.40
2023-02-05T06:13:42.031Z,1.43
2023-02-05T06:16:09.617Z,1.43
2023-02-05T06:18:37.439Z,1.00
2023-02-05T06:21:06.266Z,1.80
2023-02-05T06:23:34.733Z,1.40
2023-02-05T06:26:02.303Z,1.90
2023-02-05T06:28:29.596Z,1.77
2023-02-05T06:30:57.123Z,1.87
2023-02-05T06:33:24.999Z,1.80
2023-02-05T06:35:52.457Z,1.70
2023-02-05T06:38:19.905Z,1.87
2023-02-05T06:40:48.042Z,1.70
2023-02-05T06:43:15.879Z,1.87
2023-02-05T06:45:43.308Z,1.77
2023-02-05T06:48:10.797Z,1.40
2023-02-05T06:50:38.292Z,1.63
2023-02-05T06:53:05.668Z,1.40
2023-02-05T06:55:33.394Z,1.47
2023-02-05T06:58:00.934Z,1.30
2023-02-05T07:00:28.860Z,1.40
2023-02-05T07:02:57.250Z,1.17
2023-02-05T07:05:24.686Z,1.30
2023-02-05T07:07:52.186Z,1.53
2023-02-05T07:10:20.731Z,1.20
2023-02-05T07:12:48.111Z,1.60
2023-02-05T07:15:15.566Z,1.50
2023-02-05T07:17:42.904Z,1.37
2023-02-05T07:20:10.832Z,1.90
2023-02-05T07:22:38.294Z,2.70
2023-02-05T07:25:06.120Z,2.30
2023-02-05T07:27:34.938Z,1.90
2023-02-05T07:30:02.312Z,1.77
2023-02-05T07:32:29.698Z,2.20
2023-02-05T07:34:57.049Z,1.63
2023-02-05T07:37:24.334Z,2.10
2023-02-05T07:39:51.642Z,2.00
2023-02-05T07:42:19.141Z,2.40
2023-02-05T07:44:46.611Z,2.17
2023-02-05T07:47:14.089Z,2.80
2023-02-05T07:49:41.582Z,2.43
2023-02-05T07:52:09.038Z,2.27
2023-02-05T07:54:36.558Z,2.97
2023-02-05T07:57:06.569Z,2.90
2023-02-05T07:59:34.428Z,2.70
2023-02-05T08:02:01.902Z,2.70
2023-02-05T08:04:29.558Z,2.37
2023-02-05T08:06:57.420Z,2.40
2023-02-05T08:09:24.805Z,2.00
2023-02-05T08:11:52.253Z,2.30
2023-02-05T08:14:20.108Z,2.07
2023-02-05T08:16:47.448Z,1.83
2023-02-05T08:19:16.546Z,1.57
2023-02-05T08:21:44.453Z,0.90
2023-02-05T08:24:13.088Z,1.20
2023-02-05T08:26:40.672Z,1.27
2023-02-05T08:29:08.956Z,1.10
2023-02-05T08:31:37.304Z,1.40
2023-02-05T08:34:04.787Z,1.00
2023-02-05T08:36:32.117Z,0.97
2023-02-05T08:38:59.549Z,1.20
2023-02-05T08:41:26.976Z,1.37
2023-02-05T08:43:54.395Z,0.70
2023-02-05T08:46:26.848Z,1.10
2023-02-05T08:48:57.109Z,1.00
2023-02-05T08:51:24.708Z,0.97
2023-02-05T08:53:53.641Z,0.97
2023-02-05T08:56:21.039Z,0.80
2023-02-05T08:58:48.643Z,0.93
2023-02-05T09:01:17.478Z,0.90
2023-02-05T09:03:46.082Z,0.80
2023-02-05T09:06:15.531Z,1.07
2023-02-05T09:08:43.322Z,0.80
2023-02-05T09:11:13.672Z,0.70
2023-02-05T09:13:41.443Z,0.80
2023-02-05T09:16:11.471Z,0.90
2023-02-05T09:18:39.305Z,0.80
2023-02-05T09:21:10.973Z,0.80
2023-02-05T09:23:38.553Z,0.70
2023-02-05T09:26:07.192Z,0.80
2023-02-05T09:28:34.562Z,0.80
2023-02-05T09:31:11.819Z,0.60
2023-02-05T09:33:39.375Z,0.67
2023-02-05T09:36:13.015Z,0.70
2023-02-05T09:38:41.843Z,0.70
2023-02-05T09:41:15.128Z,0.67
2023-02-05T09:44:12.974Z,0.70
2023-02-05T09:47:13.495Z,0.70
2023-02-05T09:50:02.420Z,0.70
2023-02-05T09:52:36.257Z,0.57
2023-02-05T09:55:15.084Z,0.80
2023-02-05T09:57:43.401Z,0.70
2023-02-05T10:00:23.529Z,0.60
2023-02-05T10:03:22.403Z,0.90
2023-02-05T10:06:43.847Z,0.70
2023-02-05T10:09:54.400Z,0.70
2023-02-05T10:12:34.349Z,1.40
2023-02-05T10:15:18.384Z,1.00
2023-02-05T10:18:04.638Z,0.90
2023-02-05T10:20:42.595Z,0.77
2023-02-05T10:23:39.582Z,1.10
2023-02-05T10:26:18.584Z,0.80
2023-02-05T10:28:58.027Z,0.80
2023-02-05T10:31:41.493Z,0.80
2023-02-05T10:34:20.382Z,0.80
2023-02-05T10:36:53.715Z,0.60
2023-02-05T10:39:25.735Z,0.90
2023-02-05T10:42:02.212Z,0.70
2023-02-05T10:44:38.225Z,0.80
2023-02-05T10:47:11.148Z,0.67
2023-02-05T10:49:42.761Z,0.77
2023-02-05T10:52:12.692Z,0.60
2023-02-05T10:54:40.947Z,0.80
2023-02-05T10:57:17.565Z,0.80
2023-02-05T11:00:24.949Z,1.20
2023-02-05T11:02:59.193Z,0.80
2023-02-05T11:05:41.648Z,1.13
2023-02-05T11:08:33.642Z,0.90
2023-02-05T11:11:02.223Z,1.00
2023-02-05T11:13:30.572Z,0.80
2023-02-05T11:16:02.853Z,1.07
2023-02-05T11:18:36.730Z,0.93
2023-02-05T11:21:05.708Z,0.80
2023-02-05T11:23:39.726Z,0.97
2023-02-05T11:26:20.304Z,2.00
2023-02-05T11:28:47.825Z,0.53
2023-02-05T11:31:25.667Z,0.63
2023-02-05T11:34:15.488Z,1.20
2023-02-05T11:36:50.916Z,0.60
2023-02-05T11:39:29.315Z,0.60
2023-02-05T11:41:58.176Z,0.70
2023-02-05T11:44:35.823Z,1.00
2023-02-05T11:47:03.842Z,0.83
2023-02-05T11:49:39.556Z,0.67
2023-02-05T11:52:13.984Z,0.60
2023-02-05T11:54:47.184Z,1.07
2023-02-05T11:57:17.600Z,0.97
2023-02-05T12:00:02.068Z,0.80
2023-02-05T12:02:35.427Z,0.70
2023-02-05T12:05:23.891Z,0.67
2023-02-05T12:07:54.403Z,0.90
2023-02-05T12:10:46.204Z,0.70
2023-02-05T12:13:45.690Z,0.77
2023-02-05T12:16:42.879Z,0.80
2023-02-05T12:19:19.745Z,0.50
2023-02-05T12:21:52.980Z,1.00
2023-02-05T12:24:53.656Z,0.60
2023-02-05T12:27:32.766Z,0.90
2023-02-05T12:30:09.310Z,1.23
2023-02-05T12:32:55.512Z,0.70
2023-02-05T12:35:38.171Z,0.73
2023-02-05T12:38:32.133Z,0.63
2023-02-05T12:41:23.220Z,0.80
2023-02-05T12:43:53.640Z,0.70
2023-02-05T12:46:50.863Z,0.60
2023-02-05T12:49:45.096Z,1.20
2023-02-05T12:52:18.326Z,1.10
2023-02-05T12:54:59.790Z,0.83
2023-02-05T12:57:37.616Z,0.67
2023-02-05T13:00:12.167Z,0.70
2023-02-05T13:02:45.774Z,0.90
2023-02-05T13:05:30.434Z,0.80
2023-02-05T13:08:07.749Z,0.60
2023-02-05T13:10:42.789Z,0.80
2023-02-05T13:13:15.858Z,0.90
2023-02-05T13:15:46.712Z,0.90
2023-02-05T13:18:24.002Z,0.90
2023-02-05T13:21:17.031Z,0.53
2023-02-05T13:24:05.112Z,0.80
2023-02-05T13:26:57.478Z,0.70
2023-02-05T13:29:30.051Z,0.60
2023-02-05T13:32:16.303Z,0.80
2023-02-05T13:34:44.331Z,0.70
2023-02-05T13:37:29.082Z,0.90
2023-02-05T13:40:44.477Z,1.00
2023-02-05T13:43:24.620Z,0.93
2023-02-05T13:46:10.574Z,0.90
2023-02-05T13:49:02.267Z,0.80
2023-02-05T13:51:43.442Z,1.10
2023-02-05T13:54:51.080Z,0.47
2023-02-05T13:57:39.009Z,0.60
2023-02-05T14:00:12.537Z,0.73
2023-02-05T14:02:48.254Z,0.80
2023-02-05T14:05:27.654Z,0.80
2023-02-05T14:07:57.872Z,1.00
2023-02-05T14:10:40.065Z,0.80
2023-02-05T14:13:13.812Z,0.60
2023-02-05T14:15:43.000Z,0.50
2023-02-05T14:18:41.714Z,0.80
2023-02-05T14:21:31.051Z,0.70
2023-02-05T14:23:59.905Z,0.73
2023-02-05T14:26:51.518Z,0.40
2023-02-05T14:29:39.780Z,1.27
2023-02-05T14:32:11.953Z,0.60
2023-02-05T14:34:39.325Z,0.57
2023-02-05T14:37:23.131Z,0.80
2023-02-05T14:39:52.192Z,0.80
2023-02-05T14:42:22.270Z,0.90
2023-02-05T14:44:57.445Z,0.80
2023-02-05T14:47:33.306Z,0.83
2023-02-05T14:50:07.230Z,0.90
2023-02-05T14:52:42.883Z,0.70
2023-02-05T14:55:13.318Z,0.80
2023-02-05T14:58:04.244Z,0.80
2023-02-05T15:00:36.044Z,1.10
2023-02-05T15:03:21.617Z,0.80
2023-02-05T15:05:56.566Z,0.60
2023-02-05T15:08:36.072Z,0.70
2023-02-05T15:11:30.383Z,0.80
2023-02-05T15:14:41.629Z,0.63
2023-02-05T15:17:11.692Z,0.90
2023-02-05T15:19:55.587Z,0.80
2023-02-05T15:22:36.994Z,0.70
2023-02-05T15:25:10.574Z,1.00
2023-02-05T15:27:55.575Z,1.10
2023-02-05T15:30:28.793Z,1.07
2023-02-05T15:33:15.838Z,0.97
2023-02-05T15:35:46.761Z,0.90
2023-02-05T15:38:44.488Z,0.90
2023-02-05T15:41:15.744Z,0.60
2023-02-05T15:43:59.348Z,1.00
2023-02-05T15:46:27.435Z,1.00
2023-02-05T15:48:56.152Z,1.00
2023-02-05T15:51:28.289Z,1.13
2023-02-05T15:54:00.355Z,0.90
2023-02-05T15:56:35.447Z,0.83
2023-02-05T15:59:26.348Z,1.50
2023-02-05T16:02:08.552Z,0.90
2023-02-05T16:04:40.150Z,0.80
2023-02-05T16:07:28.225Z,0.80
2023-02-05T16:09:58.708Z,0.80
2023-02-05T16:12:26.884Z,0.90
2023-02-05T16:15:04.187Z,0.60
2023-02-05T16:17:46.096Z,0.80
2023-02-05T16:20:16.325Z,1.40
2023-02-05T16:23:02.029Z,0.90
2023-02-05T16:25:40.377Z,1.00
2023-02-05T16:28:20.774Z,0.97
2023-02-05T16:30:51.107Z,0.90
2023-02-05T16:33:33.166Z,1.10
2023-02-05T16:36:03.406Z,0.50
2023-02-05T16:38:31.107Z,1.10
2023-02-05T16:41:08.200Z,1.10
2023-02-05T16:43:40.964Z,1.10
2023-02-05T16:46:08.683Z,1.10
2023-02-05T16:48:45.867Z,0.80
2023-02-05T16:51:38.810Z,0.97
2023-02-05T16:54:12.025Z,1.00
2023-02-05T16:56:52.584Z,1.20
2023-02-05T16:59:23.989Z,1.00
2023-02-05T17:01:52.734Z,0.80
2023-02-05T17:04:38.066Z,1.03
2023-02-05T17:07:18.185Z,1.13
2023-02-05T17:09:47.225Z,1.10
2023-02-05T17:12:57.533Z,1.03
2023-02-05T17:15:28.164Z,1.17
2023-02-05T17:17:57.764Z,0.90
2023-02-05T17:20:28.726Z,0.63
2023-02-05T17:23:03.332Z,1.03
2023-02-05T17:25:47.293Z,1.07
2023-02-05T17:28:17.339Z,0.60
2023-02-05T17:30:46.234Z,0.80
2023-02-05T17:33:17.545Z,0.80
2023-02-05T17:35:45.041Z,1.10
2023-02-05T17:38:15.306Z,0.67
2023-02-05T17:40:42.768Z,0.77
2023-02-05T17:43:10.669Z,1.00
2023-02-05T17:45:40.114Z,0.60
2023-02-05T17:48:08.534Z,0.50
2023-02-05T17:50:36.406Z,0.90
2023-02-05T17:53:04.523Z,0.53
2023-02-05T17:55:32.163Z,0.80
2023-02-05T17:57:59.480Z,0.90
2023-02-05T18:00:28.865Z,1.00
2023-02-05T18:02:56.435Z,0.87
2023-02-05T18:05:23.910Z,0.90
2023-02-05T18:07:54.509Z,0.93
2023-02-05T18:10:25.308Z,0.80
2023-02-05T18:12:53.887Z,1.67
2023-02-05T18:15:21.275Z,1.40
2023-02-05T18:17:48.707Z,0.90
2023-02-05T18:20:17.710Z,0.90
2023-02-05T18:22:45.121Z,1.00
2023-02-05T18:25:12.655Z,1.53
2023-02-05T18:27:40.345Z,0.53
2023-02-05T18:30:08.417Z,0.93
2023-02-05T18:32:35.985Z,1.00
2023-02-05T18:35:04.248Z,0.90
2023-02-05T18:37:31.740Z,0.80
2023-02-05T18:39:59.084Z,0.90
2023-02-05T18:42:27.256Z,1.40
2023-02-05T18:44:54.872Z,0.63
2023-02-05T18:47:22.294Z,1.30
2023-02-05T18:49:49.701Z,0.97
2023-02-05T18:52:18.628Z,0.67
2023-02-05T18:54:46.280Z,1.60
2023-02-05T18:57:13.680Z,0.70
2023-02-05T18:59:41.047Z,0.60
2023-02-05T19:02:10.611Z,1.13
2023-02-05T19:04:37.949Z,0.80
2023-02-05T19:07:05.830Z,1.30
2023-02-05T19:09:33.378Z,1.30
2023-02-05T19:12:00.708Z,0.80
2023-02-05T19:14:28.236Z,1.10
2023-02-05T19:16:55.678Z,1.67
2023-02-05T19:19:24.702Z,1.40
2023-02-05T19:21:54.643Z,1.07
2023-02-05T19:24:22.263Z,1.03
2023-02-05T19:26:51.102Z,1.10
2023-02-05T19:29:21.031Z,0.77
2023-02-05T19:31:48.779Z,1.27
2023-02-05T19:34:16.993Z,1.40
2023-02-05T19:36:45.919Z,0.93
2023-02-05T19:39:14.719Z,1.50
2023-02-05T19:41:45.724Z,0.77
2023-02-05T19:44:14.891Z,1.07
2023-02-05T19:46:47.329Z,1.30
2023-02-05T19:49:17.606Z,1.07
2023-02-05T19:51:46.639Z,1.03
2023-02-05T19:54:15.055Z,1.93
2023-02-05T19:56:44.207Z,1.27
2023-02-05T19:59:12.927Z,1.23
2023-02-05T20:01:43.932Z,0.97
2023-02-05T20:04:18.069Z,0.50
2023-02-05T20:06:47.090Z,3.00
2023-02-05T20:09:16.535Z,1.10
2023-02-05T20:11:46.903Z,2.30
2023-02-05T20:14:15.582Z,1.40
2023-02-05T20:16:45.256Z,1.87
2023-02-05T20:19:15.501Z,1.47
2023-02-05T20:21:43.636Z,2.10
2023-02-05T20:24:11.489Z,2.73
2023-02-05T20:26:39.399Z,1.73
2023-02-05T20:29:25.567Z,1.70
2023-02-05T20:31:53.601Z,1.70
2023-02-05T20:34:26.455Z,0.83
2023-02-05T20:36:59.838Z,2.00
2023-02-05T20:39:29.127Z,1.87
2023-02-05T20:41:58.859Z,0.90
2023-02-05T20:44:32.294Z,1.47
2023-02-05T20:46:59.719Z,0.47
2023-02-05T20:49:27.255Z,1.47
2023-02-05T20:51:55.003Z,1.60
2023-02-05T20:54:24.788Z,1.50
2023-02-05T20:56:57.124Z,1.33
2023-02-05T20:59:25.409Z,1.80
2023-02-05T21:01:53.143Z,2.00
2023-02-05T21:04:20.702Z,1.40
2023-02-05T21:06:48.424Z,0.70
2023-02-05T21:09:16.691Z,1.33
2023-02-05T21:11:44.188Z,0.67
2023-02-05T21:14:12.387Z,0.80
2023-02-05T21:16:40.408Z,1.43
2023-02-05T21:19:09.003Z,0.90
2023-02-05T21:21:37.401Z,0.87
2023-02-05T21:24:11.971Z,0.70
2023-02-05T21:26:42.641Z,1.33
2023-02-05T21:29:16.026Z,0.80
2023-02-05T21:31:46.754Z,1.53
2023-02-05T21:34:21.998Z,1.80
2023-02-05T21:36:50.285Z,1.30
2023-02-05T21:39:20.466Z,1.10
2023-02-05T21:41:50.886Z,0.90
2023-02-05T21:44:18.512Z,1.77
2023-02-05T21:46:46.033Z,1.40
2023-02-05T21:49:13.495Z,1.00
2023-02-05T21:51:42.585Z,0.70
2023-02-05T21:54:11.041Z,1.83
2023-02-05T21:56:41.109Z,1.67
2023-02-05T21:59:09.906Z,0.80
2023-02-05T22:01:38.057Z,0.70
2023-02-05T22:04:10.554Z,1.13
2023-02-05T22:06:38.526Z,1.20
2023-02-05T22:09:08.653Z,1.83
2023-02-05T22:11:36.268Z,1.30
2023-02-05T22:14:03.705Z,1.17
2023-02-05T22:16:33.360Z,0.90
2023-02-05T22:19:02.112Z,1.00
2023-02-05T22:21:32.123Z,1.20
2023-02-05T22:24:01.513Z,1.17
2023-02-05T22:26:34.606Z,1.27
2023-02-05T22:29:04.526Z,1.30
2023-02-05T22:31:32.234Z,0.50
2023-02-05T22:34:00.266Z,1.57
2023-02-05T22:36:30.290Z,1.20
2023-02-05T22:38:58.890Z,1.03
2023-02-05T22:41:32.636Z,1.10
2023-02-05T22:44:01.184Z,0.70
2023-02-05T22:46:32.376Z,0.90
2023-02-05T22:49:01.892Z,1.37
2023-02-05T22:51:35.697Z,1.60
2023-02-05T22:54:03.852Z,1.10
2023-02-05T22:56:31.933Z,0.77
2023-02-05T22:59:02.063Z,1.63
2023-02-05T23:01:35.650Z,1.13
2023-02-05T23:04:05.535Z,0.47
2023-02-05T23:06:36.036Z,1.13
2023-02-05T23:09:10.176Z,0.43
2023-02-05T23:11:37.720Z,1.03
2023-02-05T23:14:07.026Z,1.33
2023-02-05T23:16:37.530Z,0.77
2023-02-05T23:19:09.510Z,0.90
2023-02-05T23:21:38.961Z,1.27
2023-02-05T23:24:07.530Z,1.73
2023-02-05T23:26:40.211Z,1.10
2023-02-05T23:29:08.643Z,1.20
2023-02-05T23:31:36.135Z,0.90
2023-02-05T23:34:03.853Z,0.90
2023-02-05T23:36:31.554Z,1.33
2023-02-05T23:38:59.714Z,0.87
2023-02-05T23:41:36.969Z,0.90
2023-02-05T23:44:13.713Z,1.20
2023-02-05T23:46:43.256Z,1.00
2023-02-05T23:49:12.191Z,0.83
2023-02-05T23:51:40.122Z,0.60
2023-02-05T23:54:09.110Z,0.93
2023-02-05T23:56:36.528Z,1.67
2023-02-05T23:59:05.366Z,1.67
